sensor_id;sensor_type;location;lat;lon;timestamp;P1;durP1;ratioP1;P2;durP2;ratioP2
30605;SDS011;17371;51.328;3.860;2023-04-25T00:00:25;18.77;;;3.72;;
30605;SDS011;17371;51.328;3.860;2023-04-25T00:02:50;16.60;;;3.73;;
30605;SDS011;17371;51.328;3.860;2023-04-25T00:05:16;17.67;;;3.80;;
30605;SDS011;17371;51.328;3.860;2023-04-25T00:07:41;18.60;;;3.90;;
30605;SDS011;17371;51.328;3.860;2023-04-25T00:10:07;18.47;;;3.13;;
30605;SDS011;17371;51.328;3.860;2023-04-25T00:12:33;17.80;;;3.80;;
30605;SDS011;17371;51.328;3.860;2023-04-25T00:15:00;13.15;;;3.65;;
30605;SDS011;17371;51.328;3.860;2023-04-25T00:17:26;25.13;;;4.17;;
30605;SDS011;17371;51.328;3.860;2023-04-25T00:19:51;20.33;;;3.60;;
30605;SDS011;17371;51.328;3.860;2023-04-25T00:22:16;13.63;;;2.87;;
30605;SDS011;17371;51.328;3.860;2023-04-25T00:24:42;22.70;;;4.53;;
30605;SDS011;17371;51.328;3.860;2023-04-25T00:27:07;13.83;;;2.90;;
30605;SDS011;17371;51.328;3.860;2023-04-25T00:29:32;21.07;;;3.83;;
30605;SDS011;17371;51.328;3.860;2023-04-25T00:31:59;20.93;;;3.97;;
30605;SDS011;17371;51.328;3.860;2023-04-25T00:34:25;20.52;;;3.63;;
30605;SDS011;17371;51.328;3.860;2023-04-25T00:36:50;17.53;;;4.00;;
30605;SDS011;17371;51.328;3.860;2023-04-25T00:39:15;12.23;;;3.13;;
30605;SDS011;17371;51.328;3.860;2023-04-25T00:41:41;21.63;;;3.10;;
30605;SDS011;17371;51.328;3.860;2023-04-25T00:44:08;15.03;;;3.07;;
30605;SDS011;17371;51.328;3.860;2023-04-25T00:46:34;14.45;;;3.83;;
30605;SDS011;17371;51.328;3.860;2023-04-25T00:49:01;15.70;;;3.40;;
30605;SDS011;17371;51.328;3.860;2023-04-25T00:51:27;20.33;;;4.07;;
30605;SDS011;17371;51.328;3.860;2023-04-25T00:53:52;15.47;;;3.23;;
30605;SDS011;17371;51.328;3.860;2023-04-25T00:56:18;13.45;;;3.10;;
30605;SDS011;17371;51.328;3.860;2023-04-25T00:58:44;11.50;;;3.23;;
30605;SDS011;17371;51.328;3.860;2023-04-25T01:01:09;14.65;;;3.30;;
30605;SDS011;17371;51.328;3.860;2023-04-25T01:03:36;20.60;;;3.67;;
30605;SDS011;17371;51.328;3.860;2023-04-25T01:06:04;16.42;;;3.17;;
30605;SDS011;17371;51.328;3.860;2023-04-25T01:08:29;12.00;;;3.65;;
30605;SDS011;17371;51.328;3.860;2023-04-25T01:10:55;14.03;;;3.70;;
30605;SDS011;17371;51.328;3.860;2023-04-25T01:13:20;15.43;;;4.43;;
30605;SDS011;17371;51.328;3.860;2023-04-25T01:15:46;14.50;;;2.97;;
30605;SDS011;17371;51.328;3.860;2023-04-25T01:18:11;13.03;;;3.10;;
30605;SDS011;17371;51.328;3.860;2023-04-25T01:20:37;14.13;;;3.10;;
30605;SDS011;17371;51.328;3.860;2023-04-25T01:23:04;14.25;;;3.20;;
30605;SDS011;17371;51.328;3.860;2023-04-25T01:25:30;19.48;;;3.47;;
30605;SDS011;17371;51.328;3.860;2023-04-25T01:27:56;10.47;;;2.83;;
30605;SDS011;17371;51.328;3.860;2023-04-25T01:30:22;11.68;;;2.70;;
30605;SDS011;17371;51.328;3.860;2023-04-25T01:32:47;11.20;;;3.67;;
30605;SDS011;17371;51.328;3.860;2023-04-25T01:35:13;17.42;;;3.13;;
30605;SDS011;17371;51.328;3.860;2023-04-25T01:37:38;11.77;;;2.87;;
30605;SDS011;17371;51.328;3.860;2023-04-25T01:40:06;12.67;;;2.67;;
30605;SDS011;17371;51.328;3.860;2023-04-25T01:42:32;10.63;;;2.95;;
30605;SDS011;17371;51.328;3.860;2023-04-25T01:44:58;10.27;;;2.75;;
30605;SDS011;17371;51.328;3.860;2023-04-25T01:47:24;11.13;;;2.87;;
30605;SDS011;17371;51.328;3.860;2023-04-25T01:49:49;14.43;;;3.20;;
30605;SDS011;17371;51.328;3.860;2023-04-25T01:52:14;15.77;;;2.77;;
30605;SDS011;17371;51.328;3.860;2023-04-25T01:54:40;11.77;;;3.03;;
30605;SDS011;17371;51.328;3.860;2023-04-25T01:57:07;13.90;;;3.80;;
30605;SDS011;17371;51.328;3.860;2023-04-25T01:59:32;16.60;;;3.58;;
30605;SDS011;17371;51.328;3.860;2023-04-25T02:01:57;8.77;;;2.50;;
30605;SDS011;17371;51.328;3.860;2023-04-25T02:04:23;13.43;;;2.80;;
30605;SDS011;17371;51.328;3.860;2023-04-25T02:06:48;13.40;;;3.27;;
30605;SDS011;17371;51.328;3.860;2023-04-25T02:09:13;10.07;;;2.70;;
30605;SDS011;17371;51.328;3.860;2023-04-25T02:11:39;16.60;;;2.90;;
30605;SDS011;17371;51.328;3.860;2023-04-25T02:14:06;14.20;;;2.17;;
30605;SDS011;17371;51.328;3.860;2023-04-25T02:16:31;13.87;;;3.80;;
30605;SDS011;17371;51.328;3.860;2023-04-25T02:18:56;15.48;;;3.83;;
30605;SDS011;17371;51.328;3.860;2023-04-25T02:21:22;9.23;;;3.03;;
30605;SDS011;17371;51.328;3.860;2023-04-25T02:23:47;10.80;;;3.17;;
30605;SDS011;17371;51.328;3.860;2023-04-25T02:26:12;9.50;;;2.90;;
30605;SDS011;17371;51.328;3.860;2023-04-25T02:28:38;10.40;;;3.20;;
30605;SDS011;17371;51.328;3.860;2023-04-25T02:31:05;9.60;;;3.03;;
30605;SDS011;17371;51.328;3.860;2023-04-25T02:33:30;9.13;;;2.83;;
30605;SDS011;17371;51.328;3.860;2023-04-25T02:35:56;11.03;;;2.77;;
30605;SDS011;17371;51.328;3.860;2023-04-25T02:38:21;10.07;;;2.93;;
30605;SDS011;17371;51.328;3.860;2023-04-25T02:40:46;13.93;;;3.03;;
30605;SDS011;17371;51.328;3.860;2023-04-25T02:43:12;8.63;;;2.60;;
30605;SDS011;17371;51.328;3.860;2023-04-25T02:45:37;4.63;;;2.73;;
30605;SDS011;17371;51.328;3.860;2023-04-25T02:48:04;8.37;;;3.17;;
30605;SDS011;17371;51.328;3.860;2023-04-25T02:50:30;18.38;;;3.40;;
30605;SDS011;17371;51.328;3.860;2023-04-25T02:52:55;9.53;;;2.17;;
30605;SDS011;17371;51.328;3.860;2023-04-25T02:55:20;16.07;;;3.30;;
30605;SDS011;17371;51.328;3.860;2023-04-25T02:57:46;5.90;;;2.63;;
30605;SDS011;17371;51.328;3.860;2023-04-25T03:00:12;8.52;;;2.95;;
30605;SDS011;17371;51.328;3.860;2023-04-25T03:02:38;14.30;;;3.33;;
30605;SDS011;17371;51.328;3.860;2023-04-25T03:05:05;12.63;;;3.17;;
30605;SDS011;17371;51.328;3.860;2023-04-25T03:07:30;9.75;;;2.75;;
30605;SDS011;17371;51.328;3.860;2023-04-25T03:09:55;9.47;;;3.50;;
30605;SDS011;17371;51.328;3.860;2023-04-25T03:12:21;11.65;;;2.65;;
30605;SDS011;17371;51.328;3.860;2023-04-25T03:14:46;9.40;;;2.30;;
30605;SDS011;17371;51.328;3.860;2023-04-25T03:17:12;12.40;;;3.10;;
30605;SDS011;17371;51.328;3.860;2023-04-25T03:19:37;9.57;;;2.77;;
30605;SDS011;17371;51.328;3.860;2023-04-25T03:22:05;10.15;;;2.55;;
30605;SDS011;17371;51.328;3.860;2023-04-25T03:24:30;12.80;;;3.45;;
30605;SDS011;17371;51.328;3.860;2023-04-25T03:26:56;18.13;;;3.87;;
30605;SDS011;17371;51.328;3.860;2023-04-25T03:29:21;10.90;;;3.37;;
30605;SDS011;17371;51.328;3.860;2023-04-25T03:31:46;13.67;;;3.20;;
30605;SDS011;17371;51.328;3.860;2023-04-25T03:34:12;21.63;;;3.17;;
30605;SDS011;17371;51.328;3.860;2023-04-25T03:36:37;10.70;;;2.90;;
30605;SDS011;17371;51.328;3.860;2023-04-25T03:39:04;9.57;;;3.00;;
30605;SDS011;17371;51.328;3.860;2023-04-25T03:41:29;14.07;;;3.10;;
30605;SDS011;17371;51.328;3.860;2023-04-25T03:43:54;15.50;;;3.37;;
30605;SDS011;17371;51.328;3.860;2023-04-25T03:46:20;9.80;;;3.00;;
30605;SDS011;17371;51.328;3.860;2023-04-25T03:48:45;13.95;;;3.58;;
30605;SDS011;17371;51.328;3.860;2023-04-25T03:51:11;11.57;;;2.53;;
30605;SDS011;17371;51.328;3.860;2023-04-25T03:53:36;15.50;;;3.43;;
30605;SDS011;17371;51.328;3.860;2023-04-25T03:56:03;17.00;;;3.10;;
30605;SDS011;17371;51.328;3.860;2023-04-25T03:58:29;16.02;;;2.92;;
30605;SDS011;17371;51.328;3.860;2023-04-25T04:00:55;11.43;;;2.67;;
30605;SDS011;17371;51.328;3.860;2023-04-25T04:03:20;17.05;;;3.22;;
30605;SDS011;17371;51.328;3.860;2023-04-25T04:05:45;19.33;;;4.05;;
30605;SDS011;17371;51.328;3.860;2023-04-25T04:08:11;8.03;;;2.30;;
30605;SDS011;17371;51.328;3.860;2023-04-25T04:10:36;16.27;;;3.73;;
30605;SDS011;17371;51.328;3.860;2023-04-25T04:13:03;15.43;;;3.00;;
30605;SDS011;17371;51.328;3.860;2023-04-25T04:15:28;12.90;;;2.95;;
30605;SDS011;17371;51.328;3.860;2023-04-25T04:17:54;12.90;;;2.67;;
30605;SDS011;17371;51.328;3.860;2023-04-25T04:20:19;10.88;;;3.13;;
30605;SDS011;17371;51.328;3.860;2023-04-25T04:22:45;11.67;;;3.00;;
30605;SDS011;17371;51.328;3.860;2023-04-25T04:25:10;8.60;;;2.10;;
30605;SDS011;17371;51.328;3.860;2023-04-25T04:27:36;8.57;;;2.40;;
30605;SDS011;17371;51.328;3.860;2023-04-25T04:30:03;11.03;;;2.70;;
30605;SDS011;17371;51.328;3.860;2023-04-25T04:32:29;10.43;;;2.90;;
30605;SDS011;17371;51.328;3.860;2023-04-25T04:34:54;12.10;;;3.60;;
30605;SDS011;17371;51.328;3.860;2023-04-25T04:37:20;9.02;;;3.65;;
30605;SDS011;17371;51.328;3.860;2023-04-25T04:39:45;9.80;;;2.57;;
30605;SDS011;17371;51.328;3.860;2023-04-25T04:42:10;16.53;;;4.00;;
30605;SDS011;17371;51.328;3.860;2023-04-25T04:44:36;14.10;;;3.30;;
30605;SDS011;17371;51.328;3.860;2023-04-25T04:47:02;10.07;;;2.93;;
30605;SDS011;17371;51.328;3.860;2023-04-25T04:49:28;17.00;;;4.07;;
30605;SDS011;17371;51.328;3.860;2023-04-25T04:51:53;9.90;;;3.70;;
30605;SDS011;17371;51.328;3.860;2023-04-25T04:54:19;12.50;;;4.87;;
30605;SDS011;17371;51.328;3.860;2023-04-25T04:56:44;12.27;;;3.77;;
30605;SDS011;17371;51.328;3.860;2023-04-25T04:59:09;12.35;;;2.78;;
30605;SDS011;17371;51.328;3.860;2023-04-25T05:01:35;10.75;;;3.72;;
30605;SDS011;17371;51.328;3.860;2023-04-25T05:04:01;8.07;;;2.77;;
30605;SDS011;17371;51.328;3.860;2023-04-25T05:06:27;5.22;;;2.63;;
30605;SDS011;17371;51.328;3.860;2023-04-25T05:08:52;17.03;;;2.67;;
30605;SDS011;17371;51.328;3.860;2023-04-25T05:11:18;14.03;;;3.20;;
30605;SDS011;17371;51.328;3.860;2023-04-25T05:13:43;9.37;;;2.33;;
30605;SDS011;17371;51.328;3.860;2023-04-25T05:16:09;9.90;;;2.53;;
30605;SDS011;17371;51.328;3.860;2023-04-25T05:18:34;11.43;;;2.60;;
30605;SDS011;17371;51.328;3.860;2023-04-25T05:21:01;14.50;;;2.77;;
30605;SDS011;17371;51.328;3.860;2023-04-25T05:23:26;18.80;;;3.20;;
30605;SDS011;17371;51.328;3.860;2023-04-25T05:25:52;11.73;;;2.90;;
30605;SDS011;17371;51.328;3.860;2023-04-25T05:28:17;7.00;;;2.30;;
30605;SDS011;17371;51.328;3.860;2023-04-25T05:30:43;8.00;;;2.03;;
30605;SDS011;17371;51.328;3.860;2023-04-25T05:33:08;8.37;;;2.37;;
30605;SDS011;17371;51.328;3.860;2023-04-25T05:35:33;13.00;;;2.33;;
30605;SDS011;17371;51.328;3.860;2023-04-25T05:38:00;6.43;;;2.17;;
30605;SDS011;17371;51.328;3.860;2023-04-25T05:40:26;13.30;;;3.42;;
30605;SDS011;17371;51.328;3.860;2023-04-25T05:42:51;7.40;;;2.97;;
30605;SDS011;17371;51.328;3.860;2023-04-25T05:45:16;11.90;;;4.60;;
30605;SDS011;17371;51.328;3.860;2023-04-25T05:47:42;10.75;;;3.17;;
30605;SDS011;17371;51.328;3.860;2023-04-25T05:50:07;14.50;;;3.07;;
30605;SDS011;17371;51.328;3.860;2023-04-25T05:52:33;8.05;;;2.20;;
30605;SDS011;17371;51.328;3.860;2023-04-25T05:55:00;7.53;;;1.87;;
30605;SDS011;17371;51.328;3.860;2023-04-25T05:57:26;6.23;;;2.27;;
30605;SDS011;17371;51.328;3.860;2023-04-25T05:59:52;13.10;;;2.83;;
30605;SDS011;17371;51.328;3.860;2023-04-25T06:02:18;8.48;;;2.38;;
30605;SDS011;17371;51.328;3.860;2023-04-25T06:04:43;8.07;;;2.00;;
30605;SDS011;17371;51.328;3.860;2023-04-25T06:07:09;7.35;;;1.75;;
30605;SDS011;17371;51.328;3.860;2023-04-25T06:09:34;10.73;;;2.30;;
30605;SDS011;17371;51.328;3.860;2023-04-25T06:12:01;10.27;;;2.33;;
30605;SDS011;17371;51.328;3.860;2023-04-25T06:14:27;8.05;;;2.10;;
30605;SDS011;17371;51.328;3.860;2023-04-25T06:16:52;10.47;;;1.97;;
30605;SDS011;17371;51.328;3.860;2023-04-25T06:19:18;10.95;;;1.77;;
30605;SDS011;17371;51.328;3.860;2023-04-25T06:21:44;6.73;;;2.10;;
30605;SDS011;17371;51.328;3.860;2023-04-25T06:24:09;10.20;;;1.83;;
30605;SDS011;17371;51.328;3.860;2023-04-25T06:26:34;5.30;;;1.70;;
30605;SDS011;17371;51.328;3.860;2023-04-25T06:29:01;6.53;;;1.70;;
30605;SDS011;17371;51.328;3.860;2023-04-25T06:31:27;8.35;;;2.10;;
30605;SDS011;17371;51.328;3.860;2023-04-25T06:33:52;5.13;;;1.87;;
30605;SDS011;17371;51.328;3.860;2023-04-25T06:36:17;9.13;;;2.00;;
30605;SDS011;17371;51.328;3.860;2023-04-25T06:38:43;12.00;;;2.03;;
30605;SDS011;17371;51.328;3.860;2023-04-25T06:41:08;8.43;;;2.25;;
30605;SDS011;17371;51.328;3.860;2023-04-25T06:43:33;8.20;;;2.10;;
30605;SDS011;17371;51.328;3.860;2023-04-25T06:46:00;9.80;;;1.70;;
30605;SDS011;17371;51.328;3.860;2023-04-25T06:48:26;7.07;;;1.77;;
30605;SDS011;17371;51.328;3.860;2023-04-25T06:50:51;3.87;;;1.37;;
30605;SDS011;17371;51.328;3.860;2023-04-25T06:53:17;6.90;;;2.00;;
30605;SDS011;17371;51.328;3.860;2023-04-25T06:55:42;6.63;;;1.73;;
30605;SDS011;17371;51.328;3.860;2023-04-25T06:58:07;7.83;;;1.70;;
30605;SDS011;17371;51.328;3.860;2023-04-25T07:00:33;6.72;;;1.63;;
30605;SDS011;17371;51.328;3.860;2023-04-25T07:02:59;2.88;;;1.00;;
30605;SDS011;17371;51.328;3.860;2023-04-25T07:05:25;5.00;;;1.40;;
30605;SDS011;17371;51.328;3.860;2023-04-25T07:07:50;3.85;;;1.20;;
30605;SDS011;17371;51.328;3.860;2023-04-25T07:10:16;8.38;;;1.88;;
30605;SDS011;17371;51.328;3.860;2023-04-25T07:12:41;6.00;;;2.10;;
30605;SDS011;17371;51.328;3.860;2023-04-25T07:15:07;5.50;;;1.80;;
30605;SDS011;17371;51.328;3.860;2023-04-25T07:17:32;2.03;;;1.33;;
30605;SDS011;17371;51.328;3.860;2023-04-25T07:19:59;4.33;;;1.60;;
30605;SDS011;17371;51.328;3.860;2023-04-25T07:22:25;11.15;;;2.25;;
30605;SDS011;17371;51.328;3.860;2023-04-25T07:24:50;5.30;;;1.60;;
30605;SDS011;17371;51.328;3.860;2023-04-25T07:27:15;1.90;;;1.30;;
30605;SDS011;17371;51.328;3.860;2023-04-25T07:29:41;7.83;;;2.10;;
30605;SDS011;17371;51.328;3.860;2023-04-25T07:32:06;7.40;;;1.70;;
30605;SDS011;17371;51.328;3.860;2023-04-25T07:34:32;6.05;;;1.33;;
30605;SDS011;17371;51.328;3.860;2023-04-25T07:36:58;4.47;;;1.30;;
30605;SDS011;17371;51.328;3.860;2023-04-25T07:39:24;2.88;;;1.50;;
30605;SDS011;17371;51.328;3.860;2023-04-25T07:41:49;9.40;;;1.60;;
30605;SDS011;17371;51.328;3.860;2023-04-25T07:44:14;6.57;;;2.00;;
30605;SDS011;17371;51.328;3.860;2023-04-25T07:46:40;4.73;;;1.60;;
30605;SDS011;17371;51.328;3.860;2023-04-25T07:49:05;5.20;;;1.80;;
30605;SDS011;17371;51.328;3.860;2023-04-25T07:51:31;9.38;;;1.90;;
30605;SDS011;17371;51.328;3.860;2023-04-25T07:53:57;5.07;;;1.50;;
30605;SDS011;17371;51.328;3.860;2023-04-25T07:56:23;8.20;;;2.20;;
30605;SDS011;17371;51.328;3.860;2023-04-25T07:58:48;7.33;;;1.83;;
30605;SDS011;17371;51.328;3.860;2023-04-25T08:01:14;9.73;;;1.90;;
30605;SDS011;17371;51.328;3.860;2023-04-25T08:03:39;4.77;;;1.40;;
30605;SDS011;17371;51.328;3.860;2023-04-25T08:06:04;6.53;;;1.50;;
30605;SDS011;17371;51.328;3.860;2023-04-25T08:08:30;5.78;;;2.00;;
30605;SDS011;17371;51.328;3.860;2023-04-25T08:10:57;7.13;;;1.87;;
30605;SDS011;17371;51.328;3.860;2023-04-25T08:13:22;6.43;;;1.75;;
30605;SDS011;17371;51.328;3.860;2023-04-25T08:15:48;6.73;;;1.70;;
30605;SDS011;17371;51.328;3.860;2023-04-25T08:18:13;7.37;;;1.63;;
30605;SDS011;17371;51.328;3.860;2023-04-25T08:20:38;5.85;;;1.35;;
30605;SDS011;17371;51.328;3.860;2023-04-25T08:23:04;5.93;;;1.30;;
30605;SDS011;17371;51.328;3.860;2023-04-25T08:25:29;12.40;;;2.00;;
30605;SDS011;17371;51.328;3.860;2023-04-25T08:27:56;7.60;;;1.53;;
30605;SDS011;17371;51.328;3.860;2023-04-25T08:30:21;5.18;;;1.45;;
30605;SDS011;17371;51.328;3.860;2023-04-25T08:32:47;4.87;;;1.60;;
30605;SDS011;17371;51.328;3.860;2023-04-25T08:35:12;9.63;;;1.90;;
30605;SDS011;17371;51.328;3.860;2023-04-25T08:37:38;6.78;;;1.80;;
30605;SDS011;17371;51.328;3.860;2023-04-25T08:40:03;10.00;;;1.67;;
30605;SDS011;17371;51.328;3.860;2023-04-25T08:42:30;7.70;;;1.83;;
30605;SDS011;17371;51.328;3.860;2023-04-25T08:44:57;4.03;;;1.30;;
30605;SDS011;17371;51.328;3.860;2023-04-25T08:47:24;5.57;;;1.63;;
30605;SDS011;17371;51.328;3.860;2023-04-25T08:49:49;7.83;;;1.50;;
30605;SDS011;17371;51.328;3.860;2023-04-25T08:52:15;3.35;;;1.48;;
30605;SDS011;17371;51.328;3.860;2023-04-25T08:54:42;6.63;;;1.48;;
30605;SDS011;17371;51.328;3.860;2023-04-25T08:57:08;6.37;;;1.83;;
30605;SDS011;17371;51.328;3.860;2023-04-25T08:59:34;9.13;;;1.80;;
30605;SDS011;17371;51.328;3.860;2023-04-25T09:02:01;7.40;;;1.93;;
30605;SDS011;17371;51.328;3.860;2023-04-25T09:04:27;9.32;;;1.70;;
30605;SDS011;17371;51.328;3.860;2023-04-25T09:06:52;8.48;;;2.20;;
30605;SDS011;17371;51.328;3.860;2023-04-25T09:09:18;10.20;;;1.57;;
30605;SDS011;17371;51.328;3.860;2023-04-25T09:11:43;4.67;;;1.67;;
30605;SDS011;17371;51.328;3.860;2023-04-25T09:14:12;5.37;;;1.60;;
30605;SDS011;17371;51.328;3.860;2023-04-25T09:16:58;6.70;;;1.90;;
30605;SDS011;17371;51.328;3.860;2023-04-25T09:19:28;3.83;;;1.52;;
30605;SDS011;17371;51.328;3.860;2023-04-25T09:21:54;6.55;;;1.70;;
30605;SDS011;17371;51.328;3.860;2023-04-25T09:24:28;3.77;;;1.33;;
30605;SDS011;17371;51.328;3.860;2023-04-25T09:26:55;6.15;;;1.80;;
30605;SDS011;17371;51.328;3.860;2023-04-25T09:29:20;5.47;;;1.73;;
30605;SDS011;17371;51.328;3.860;2023-04-25T09:31:54;6.18;;;2.00;;
30605;SDS011;17371;51.328;3.860;2023-04-25T09:34:38;6.85;;;1.88;;
30605;SDS011;17371;51.328;3.860;2023-04-25T09:37:04;4.40;;;1.50;;
30605;SDS011;17371;51.328;3.860;2023-04-25T09:39:30;4.63;;;1.47;;
30605;SDS011;17371;51.328;3.860;2023-04-25T09:41:57;3.78;;;1.63;;
30605;SDS011;17371;51.328;3.860;2023-04-25T09:44:24;4.00;;;1.03;;
30605;SDS011;17371;51.328;3.860;2023-04-25T09:46:49;2.28;;;1.10;;
30605;SDS011;17371;51.328;3.860;2023-04-25T09:49:16;2.77;;;1.43;;
30605;SDS011;17371;51.328;3.860;2023-04-25T09:51:41;5.68;;;1.20;;
30605;SDS011;17371;51.328;3.860;2023-04-25T09:54:07;3.90;;;1.30;;
30605;SDS011;17371;51.328;3.860;2023-04-25T09:56:33;7.03;;;1.40;;
30605;SDS011;17371;51.328;3.860;2023-04-25T09:59:01;3.50;;;1.55;;
30605;SDS011;17371;51.328;3.860;2023-04-25T10:01:26;2.53;;;1.00;;
30605;SDS011;17371;51.328;3.860;2023-04-25T10:03:52;4.47;;;1.13;;
30605;SDS011;17371;51.328;3.860;2023-04-25T10:06:23;2.17;;;1.02;;
30605;SDS011;17371;51.328;3.860;2023-04-25T10:08:50;6.20;;;1.63;;
30605;SDS011;17371;51.328;3.860;2023-04-25T10:11:16;3.60;;;0.85;;
30605;SDS011;17371;51.328;3.860;2023-04-25T10:13:42;4.28;;;1.20;;
30605;SDS011;17371;51.328;3.860;2023-04-25T10:16:08;7.70;;;1.50;;
30605;SDS011;17371;51.328;3.860;2023-04-25T10:18:33;6.30;;;1.60;;
30605;SDS011;17371;51.328;3.860;2023-04-25T10:20:59;6.80;;;1.50;;
30605;SDS011;17371;51.328;3.860;2023-04-25T10:23:27;3.53;;;1.20;;
30605;SDS011;17371;51.328;3.860;2023-04-25T10:25:53;3.67;;;1.30;;
30605;SDS011;17371;51.328;3.860;2023-04-25T10:28:19;7.77;;;1.57;;
30605;SDS011;17371;51.328;3.860;2023-04-25T10:30:56;5.20;;;1.60;;
30605;SDS011;17371;51.328;3.860;2023-04-25T10:33:29;8.13;;;1.30;;
30605;SDS011;17371;51.328;3.860;2023-04-25T10:35:57;6.25;;;1.70;;
30605;SDS011;17371;51.328;3.860;2023-04-25T10:38:22;4.03;;;1.50;;
30605;SDS011;17371;51.328;3.860;2023-04-25T10:43:33;8.60;;;1.47;;
30605;SDS011;17371;51.328;3.860;2023-04-25T10:46:00;4.35;;;1.38;;
30605;SDS011;17371;51.328;3.860;2023-04-25T10:48:25;6.07;;;1.80;;
30605;SDS011;17371;51.328;3.860;2023-04-25T10:50:53;5.05;;;1.52;;
30605;SDS011;17371;51.328;3.860;2023-04-25T10:53:33;3.67;;;1.53;;
30605;SDS011;17371;51.328;3.860;2023-04-25T10:55:58;5.97;;;1.40;;
30605;SDS011;17371;51.328;3.860;2023-04-25T10:58:25;8.03;;;1.10;;
30605;SDS011;17371;51.328;3.860;2023-04-25T11:00:50;3.78;;;1.30;;
30605;SDS011;17371;51.328;3.860;2023-04-25T11:03:16;6.85;;;1.63;;
30605;SDS011;17371;51.328;3.860;2023-04-25T11:05:41;5.22;;;1.40;;
30605;SDS011;17371;51.328;3.860;2023-04-25T11:08:10;5.40;;;1.75;;
30605;SDS011;17371;51.328;3.860;2023-04-25T11:10:36;3.73;;;1.33;;
30605;SDS011;17371;51.328;3.860;2023-04-25T11:13:02;7.28;;;1.50;;
30605;SDS011;17371;51.328;3.860;2023-04-25T11:15:29;4.30;;;1.33;;
30605;SDS011;17371;51.328;3.860;2023-04-25T11:17:54;8.98;;;1.83;;
30605;SDS011;17371;51.328;3.860;2023-04-25T11:20:20;3.55;;;1.20;;
30605;SDS011;17371;51.328;3.860;2023-04-25T11:22:46;6.50;;;1.27;;
30605;SDS011;17371;51.328;3.860;2023-04-25T11:25:12;3.70;;;1.30;;
30605;SDS011;17371;51.328;3.860;2023-04-25T11:27:39;8.33;;;1.70;;
30605;SDS011;17371;51.328;3.860;2023-04-25T11:30:14;1.30;;;1.10;;
30605;SDS011;17371;51.328;3.860;2023-04-25T11:32:42;5.40;;;1.30;;
30605;SDS011;17371;51.328;3.860;2023-04-25T11:35:07;3.45;;;1.40;;
30605;SDS011;17371;51.328;3.860;2023-04-25T11:37:33;4.17;;;1.20;;
30605;SDS011;17371;51.328;3.860;2023-04-25T11:39:58;3.70;;;1.20;;
30605;SDS011;17371;51.328;3.860;2023-04-25T11:42:24;4.10;;;1.33;;
30605;SDS011;17371;51.328;3.860;2023-04-25T11:44:49;2.97;;;1.20;;
30605;SDS011;17371;51.328;3.860;2023-04-25T11:47:15;3.97;;;1.30;;
30605;SDS011;17371;51.328;3.860;2023-04-25T11:49:41;2.23;;;1.10;;
30605;SDS011;17371;51.328;3.860;2023-04-25T11:52:07;3.15;;;1.17;;
30605;SDS011;17371;51.328;3.860;2023-04-25T11:54:34;4.53;;;1.40;;
30605;SDS011;17371;51.328;3.860;2023-04-25T11:57:00;4.33;;;1.40;;
30605;SDS011;17371;51.328;3.860;2023-04-25T11:59:26;5.35;;;1.42;;
30605;SDS011;17371;51.328;3.860;2023-04-25T12:01:51;4.77;;;1.70;;
30605;SDS011;17371;51.328;3.860;2023-04-25T12:04:17;4.83;;;1.37;;
30605;SDS011;17371;51.328;3.860;2023-04-25T12:06:45;7.13;;;1.40;;
30605;SDS011;17371;51.328;3.860;2023-04-25T12:09:11;4.90;;;1.27;;
30605;SDS011;17371;51.328;3.860;2023-04-25T12:11:43;2.90;;;1.33;;
30605;SDS011;17371;51.328;3.860;2023-04-25T12:14:09;5.93;;;1.42;;
30605;SDS011;17371;51.328;3.860;2023-04-25T12:16:41;8.73;;;1.50;;
30605;SDS011;17371;51.328;3.860;2023-04-25T12:19:07;6.20;;;1.45;;
30605;SDS011;17371;51.328;3.860;2023-04-25T12:21:33;4.43;;;1.40;;
30605;SDS011;17371;51.328;3.860;2023-04-25T12:24:09;3.43;;;1.70;;
30605;SDS011;17371;51.328;3.860;2023-04-25T12:26:45;2.28;;;1.00;;
30605;SDS011;17371;51.328;3.860;2023-04-25T12:29:14;6.15;;;1.40;;
30605;SDS011;17371;51.328;3.860;2023-04-25T12:31:40;1.58;;;0.98;;
30605;SDS011;17371;51.328;3.860;2023-04-25T12:34:06;3.17;;;1.30;;
30605;SDS011;17371;51.328;3.860;2023-04-25T12:36:31;4.70;;;1.37;;
30605;SDS011;17371;51.328;3.860;2023-04-25T12:38:57;5.40;;;1.70;;
30605;SDS011;17371;51.328;3.860;2023-04-25T12:41:23;7.28;;;1.40;;
30605;SDS011;17371;51.328;3.860;2023-04-25T12:43:49;4.73;;;1.33;;
30605;SDS011;17371;51.328;3.860;2023-04-25T12:46:14;3.08;;;1.40;;
30605;SDS011;17371;51.328;3.860;2023-04-25T12:48:40;6.83;;;1.20;;
30605;SDS011;17371;51.328;3.860;2023-04-25T12:51:05;5.00;;;1.77;;
30605;SDS011;17371;51.328;3.860;2023-04-25T12:53:31;3.17;;;1.17;;
30605;SDS011;17371;51.328;3.860;2023-04-25T12:55:56;5.85;;;1.52;;
30605;SDS011;17371;51.328;3.860;2023-04-25T12:58:23;3.40;;;1.30;;
30605;SDS011;17371;51.328;3.860;2023-04-25T13:00:48;5.07;;;1.40;;
30605;SDS011;17371;51.328;3.860;2023-04-25T13:03:14;3.13;;;1.40;;
30605;SDS011;17371;51.328;3.860;2023-04-25T13:05:39;3.83;;;1.30;;
30605;SDS011;17371;51.328;3.860;2023-04-25T13:08:05;1.48;;;0.90;;
30605;SDS011;17371;51.328;3.860;2023-04-25T13:10:30;5.33;;;1.30;;
30605;SDS011;17371;51.328;3.860;2023-04-25T13:12:56;7.37;;;1.60;;
30605;SDS011;17371;51.328;3.860;2023-04-25T13:15:22;6.57;;;1.47;;
30605;SDS011;17371;51.328;3.860;2023-04-25T13:17:48;3.40;;;1.10;;
30605;SDS011;17371;51.328;3.860;2023-04-25T13:20:13;3.92;;;1.50;;
30605;SDS011;17371;51.328;3.860;2023-04-25T13:22:39;5.43;;;1.50;;
30605;SDS011;17371;51.328;3.860;2023-04-25T13:25:05;2.37;;;1.30;;
30605;SDS011;17371;51.328;3.860;2023-04-25T13:27:31;2.15;;;0.90;;
30605;SDS011;17371;51.328;3.860;2023-04-25T13:29:57;1.90;;;0.93;;
30605;SDS011;17371;51.328;3.860;2023-04-25T13:32:24;4.38;;;1.48;;
30605;SDS011;17371;51.328;3.860;2023-04-25T13:34:50;4.13;;;1.50;;
30605;SDS011;17371;51.328;3.860;2023-04-25T13:37:16;5.28;;;1.10;;
30605;SDS011;17371;51.328;3.860;2023-04-25T13:39:41;7.60;;;1.63;;
30605;SDS011;17371;51.328;3.860;2023-04-25T13:42:06;5.10;;;1.20;;
30605;SDS011;17371;51.328;3.860;2023-04-25T13:44:32;5.53;;;1.33;;
30605;SDS011;17371;51.328;3.860;2023-04-25T13:46:57;4.23;;;1.60;;
30605;SDS011;17371;51.328;3.860;2023-04-25T13:49:24;3.07;;;1.20;;
30605;SDS011;17371;51.328;3.860;2023-04-25T13:51:49;6.43;;;1.40;;
30605;SDS011;17371;51.328;3.860;2023-04-25T13:54:15;4.90;;;1.30;;
30605;SDS011;17371;51.328;3.860;2023-04-25T13:56:40;5.27;;;1.30;;
30605;SDS011;17371;51.328;3.860;2023-04-25T13:59:06;8.52;;;1.27;;
30605;SDS011;17371;51.328;3.860;2023-04-25T14:01:31;5.80;;;1.40;;
30605;SDS011;17371;51.328;3.860;2023-04-25T14:03:56;5.47;;;1.80;;
30605;SDS011;17371;51.328;3.860;2023-04-25T14:06:23;4.30;;;1.30;;
30605;SDS011;17371;51.328;3.860;2023-04-25T14:08:49;3.97;;;1.67;;
30605;SDS011;17371;51.328;3.860;2023-04-25T14:11:14;5.43;;;1.60;;
30605;SDS011;17371;51.328;3.860;2023-04-25T14:13:39;5.53;;;1.67;;
30605;SDS011;17371;51.328;3.860;2023-04-25T14:16:05;2.47;;;1.10;;
30605;SDS011;17371;51.328;3.860;2023-04-25T14:18:30;4.57;;;1.73;;
30605;SDS011;17371;51.328;3.860;2023-04-25T14:20:56;4.23;;;1.20;;
30605;SDS011;17371;51.328;3.860;2023-04-25T14:23:23;2.87;;;1.20;;
30605;SDS011;17371;51.328;3.860;2023-04-25T14:25:48;7.80;;;1.70;;
30605;SDS011;17371;51.328;3.860;2023-04-25T14:28:14;8.80;;;1.57;;
30605;SDS011;17371;51.328;3.860;2023-04-25T14:30:39;3.90;;;1.50;;
30605;SDS011;17371;51.328;3.860;2023-04-25T14:33:04;2.87;;;1.20;;
30605;SDS011;17371;51.328;3.860;2023-04-25T14:35:30;7.33;;;2.00;;
30605;SDS011;17371;51.328;3.860;2023-04-25T14:37:55;4.73;;;1.70;;